createdAt,value
2023-01-27T00:02:25.475Z,-0.31
2023-01-27T00:05:29.234Z,-0.34
2023-01-27T00:08:32.427Z,-0.36
2023-01-27T00:11:54.446Z,-0.47
2023-01-27T00:14:58.295Z,-0.44
2023-01-27T00:18:02.391Z,-0.45
2023-01-27T00:21:24.415Z,-0.45
2023-01-27T00:24:37.267Z,-0.44
2023-01-27T00:27:40.823Z,-0.48
2023-01-27T00:30:46.000Z,-0.50
2023-01-27T00:33:49.650Z,-0.51
2023-01-27T00:36:53.182Z,-0.53
2023-01-27T00:39:56.347Z,-0.56
2023-01-27T00:42:59.673Z,-0.56
2023-01-27T00:46:03.248Z,-0.59
2023-01-27T00:49:06.725Z,-0.66
2023-01-27T00:52:10.004Z,-0.58
2023-01-27T00:55:16.133Z,-0.58
2023-01-27T00:58:19.993Z,-0.61
2023-01-27T01:01:23.863Z,-0.59
2023-01-27T01:04:27.389Z,-0.56
2023-01-27T01:07:30.894Z,-0.55
2023-01-27T01:10:38.480Z,-0.51
2023-01-27T01:13:43.221Z,-0.49
2023-01-27T01:16:46.605Z,-0.52
2023-01-27T01:19:50.084Z,-0.49
2023-01-27T01:22:53.576Z,-0.47
2023-01-27T01:25:57.852Z,-0.48
2023-01-27T01:29:01.128Z,-0.48
2023-01-27T01:32:04.950Z,-0.44
2023-01-27T01:35:08.617Z,-0.44
2023-01-27T01:38:12.202Z,-0.53
2023-01-27T01:41:18.566Z,-0.50
2023-01-27T01:44:29.057Z,-0.54
2023-01-27T01:47:33.941Z,-0.57
2023-01-27T01:50:41.220Z,-0.66
2023-01-27T01:54:06.244Z,-0.71
2023-01-27T01:57:23.190Z,-0.78
2023-01-27T02:00:27.189Z,-0.88
2023-01-27T02:03:31.144Z,-0.93
2023-01-27T02:06:43.668Z,-1.05
2023-01-27T02:09:47.325Z,-1.08
2023-01-27T02:12:51.058Z,-1.21
2023-01-27T02:15:55.940Z,-1.37
2023-01-27T02:18:59.155Z,-1.46
2023-01-27T02:22:05.718Z,-1.60
2023-01-27T02:25:36.829Z,-1.69
2023-01-27T02:28:41.109Z,-1.77
2023-01-27T02:31:44.452Z,-1.87
2023-01-27T02:34:48.290Z,-1.98
2023-01-27T02:37:52.458Z,-2.08
2023-01-27T02:41:00.630Z,-2.16
2023-01-27T02:44:04.041Z,-2.13
2023-01-27T02:47:09.033Z,-2.24
2023-01-27T02:50:12.655Z,-2.23
2023-01-27T02:53:16.819Z,-2.31
2023-01-27T02:56:20.033Z,-2.39
2023-01-27T02:59:23.805Z,-2.42
2023-01-27T03:02:30.996Z,-2.37
2023-01-27T03:05:34.730Z,-2.41
2023-01-27T03:08:38.150Z,-2.43
2023-01-27T03:12:00.444Z,-2.39
2023-01-27T03:15:24.033Z,-2.45
2023-01-27T03:18:28.029Z,-2.34
2023-01-27T03:21:31.254Z,-2.27
2023-01-27T03:24:37.408Z,-2.11
2023-01-27T03:27:42.511Z,-2.20
2023-01-27T03:30:47.894Z,-2.17
2023-01-27T03:33:53.836Z,-2.20
2023-01-27T03:37:16.755Z,-2.33
2023-01-27T03:40:39.285Z,-2.51
2023-01-27T03:44:02.660Z,-2.59
2023-01-27T03:47:05.967Z,-2.56
2023-01-27T03:50:11.344Z,-2.51
2023-01-27T03:53:15.000Z,-2.45
2023-01-27T03:56:20.398Z,-2.47
2023-01-27T03:59:23.934Z,-2.59
2023-01-27T04:02:46.426Z,-2.65
2023-01-27T04:06:09.214Z,-2.70
2023-01-27T04:09:14.063Z,-2.69
2023-01-27T04:12:18.620Z,-2.71
2023-01-27T04:15:22.646Z,-2.62
2023-01-27T04:18:26.057Z,-2.51
2023-01-27T04:21:29.366Z,-2.37
2023-01-27T04:24:33.323Z,-2.29
2023-01-27T04:27:36.528Z,-2.23
2023-01-27T04:30:40.119Z,-2.24
2023-01-27T04:33:44.774Z,-2.25
2023-01-27T04:36:48.454Z,-2.26
2023-01-27T04:39:52.361Z,-2.19
2023-01-27T04:42:58.210Z,-2.25
2023-01-27T04:46:01.491Z,-2.15
2023-01-27T04:49:06.724Z,-2.23
2023-01-27T04:52:09.988Z,-2.29
2023-01-27T04:55:14.166Z,-2.40
2023-01-27T04:58:18.182Z,-2.37
2023-01-27T05:01:22.422Z,-2.47
2023-01-27T05:04:26.822Z,-2.53
2023-01-27T05:07:32.218Z,-2.58
2023-01-27T05:10:36.237Z,-2.65
2023-01-27T05:13:41.097Z,-2.76
2023-01-27T05:16:44.397Z,-2.78
2023-01-27T05:19:48.112Z,-2.82
2023-01-27T05:22:52.280Z,-2.93
2023-01-27T05:25:55.670Z,-2.92
2023-01-27T05:28:59.145Z,-3.03
2023-01-27T05:32:02.786Z,-3.00
2023-01-27T05:35:07.242Z,-2.85
2023-01-27T05:38:11.854Z,-2.86
2023-01-27T05:41:17.448Z,-2.83
2023-01-27T05:44:21.131Z,-2.79
2023-01-27T05:47:24.592Z,-2.78
2023-01-27T05:50:28.930Z,-2.68
2023-01-27T05:53:32.363Z,-2.68
2023-01-27T05:56:36.041Z,-2.75
2023-01-27T05:59:39.261Z,-2.70
2023-01-27T06:02:42.823Z,-2.59
2023-01-27T06:05:54.367Z,-2.61
2023-01-27T06:08:57.764Z,-2.64
2023-01-27T06:12:01.455Z,-2.64
2023-01-27T06:15:04.783Z,-2.60
2023-01-27T06:18:08.353Z,-2.58
2023-01-27T06:21:13.097Z,-2.59
2023-01-27T06:24:16.887Z,-2.50
2023-01-27T06:27:20.133Z,-2.45
2023-01-27T06:30:24.766Z,-2.43
2023-01-27T06:33:28.201Z,-2.19
2023-01-27T06:36:31.834Z,-2.23
2023-01-27T06:39:34.992Z,-2.14
2023-01-27T06:42:43.357Z,-2.08
2023-01-27T06:45:49.983Z,-1.97
2023-01-27T06:48:53.533Z,-1.93
2023-01-27T06:51:56.733Z,-1.94
2023-01-27T06:55:01.597Z,-1.94
2023-01-27T06:58:04.952Z,-1.81
2023-01-27T07:01:09.216Z,-1.75
2023-01-27T07:04:12.789Z,-1.53
2023-01-27T07:07:24.133Z,-1.29
2023-01-27T07:10:29.771Z,-1.22
2023-01-27T07:13:33.278Z,-1.13
2023-01-27T07:16:37.726Z,-0.96
2023-01-27T07:19:42.456Z,-0.84
2023-01-27T07:22:45.671Z,-0.69
2023-01-27T07:25:49.255Z,-0.57
2023-01-27T07:28:52.813Z,-0.49
2023-01-27T07:31:56.462Z,-0.46
2023-01-27T07:35:00.445Z,-0.40
2023-01-27T07:38:04.711Z,-0.39
2023-01-27T07:41:08.226Z,-0.32
2023-01-27T07:44:11.875Z,-0.27
2023-01-27T07:47:15.577Z,-0.27
2023-01-27T07:50:19.313Z,-0.29
2023-01-27T07:53:22.708Z,-0.22
2023-01-27T07:56:26.276Z,-0.18
2023-01-27T07:59:29.492Z,-0.18
2023-01-27T08:02:34.304Z,-0.06
2023-01-27T08:05:38.664Z,-0.02
2023-01-27T08:08:41.946Z,0.03
2023-01-27T08:11:45.306Z,0.09
2023-01-27T08:14:48.359Z,0.13
2023-01-27T08:17:56.397Z,0.24
2023-01-27T08:21:01.596Z,0.25
2023-01-27T08:24:05.369Z,0.33
2023-01-27T08:27:09.702Z,0.33
2023-01-27T08:30:13.757Z,0.33
2023-01-27T08:33:19.018Z,0.35
2023-01-27T08:36:23.838Z,0.35
2023-01-27T08:39:26.869Z,0.36
2023-01-27T08:42:30.224Z,0.40
2023-01-27T08:45:33.327Z,0.43
2023-01-27T08:48:37.433Z,0.47
2023-01-27T08:51:41.628Z,0.55
2023-01-27T08:54:45.036Z,0.58
2023-01-27T08:57:47.967Z,0.65
2023-01-27T09:00:51.659Z,0.74
2023-01-27T09:03:56.155Z,0.74
2023-01-27T09:06:59.678Z,0.87
2023-01-27T09:10:14.112Z,0.88
2023-01-27T09:13:18.843Z,1.03
2023-01-27T09:16:22.043Z,1.08
2023-01-27T09:19:25.975Z,1.10
2023-01-27T09:22:30.484Z,1.15
2023-01-27T09:25:33.930Z,1.08
2023-01-27T09:28:42.311Z,1.10
2023-01-27T09:31:46.895Z,1.14
2023-01-27T09:34:50.484Z,1.19
2023-01-27T09:37:59.310Z,1.12
2023-01-27T09:41:48.452Z,1.23
2023-01-27T09:45:11.698Z,1.29
2023-01-27T09:48:22.965Z,1.30
2023-01-27T09:51:55.062Z,1.34
2023-01-27T09:55:09.025Z,1.30
2023-01-27T09:58:27.958Z,1.35
2023-01-27T10:01:43.237Z,1.28
2023-01-27T10:05:08.849Z,1.32
2023-01-27T10:08:39.703Z,1.35
2023-01-27T10:11:53.472Z,1.31
2023-01-27T10:15:29.750Z,1.30
2023-01-27T10:19:08.479Z,1.32
2023-01-27T10:22:30.012Z,1.33
2023-01-27T10:25:58.989Z,1.40
2023-01-27T10:29:28.314Z,1.23
2023-01-27T10:32:41.820Z,1.21
2023-01-27T10:35:53.782Z,1.24
2023-01-27T10:39:17.725Z,1.21
2023-01-27T10:42:56.110Z,1.13
2023-01-27T10:46:20.572Z,1.05
2023-01-27T10:49:41.531Z,1.10
2023-01-27T10:53:20.315Z,1.12
2023-01-27T10:56:38.933Z,0.90
2023-01-27T11:00:18.040Z,0.80
2023-01-27T11:03:38.215Z,0.71
2023-01-27T11:06:44.962Z,0.58
2023-01-27T11:10:16.324Z,0.52
2023-01-27T11:13:19.869Z,0.47
2023-01-27T11:16:27.301Z,0.49
2023-01-27T11:19:35.247Z,0.19
2023-01-27T11:22:52.601Z,0.19
2023-01-27T11:26:33.698Z,0.03
2023-01-27T11:29:42.964Z,0.09
2023-01-27T11:33:01.734Z,0.02
2023-01-27T11:36:05.254Z,-0.06
2023-01-27T11:39:11.383Z,-0.13
2023-01-27T11:42:15.684Z,-0.20
2023-01-27T11:45:21.493Z,-0.13
2023-01-27T11:48:37.325Z,-0.12
2023-01-27T11:51:41.454Z,-0.11
2023-01-27T11:54:51.121Z,-0.05
2023-01-27T11:58:02.586Z,-0.08
2023-01-27T12:01:16.424Z,0.02
2023-01-27T12:04:39.493Z,-0.20
2023-01-27T12:07:51.494Z,-0.02
2023-01-27T12:10:55.085Z,0.01
2023-01-27T12:14:03.905Z,-0.01
2023-01-27T12:17:08.732Z,0.03
2023-01-27T12:20:50.683Z,0.04
2023-01-27T12:23:56.391Z,0.03
2023-01-27T12:27:00.754Z,0.07
2023-01-27T12:30:08.508Z,0.16
2023-01-27T12:33:22.316Z,-0.05
2023-01-27T12:36:29.256Z,0.14
2023-01-27T12:40:00.644Z,0.08
2023-01-27T12:43:17.372Z,0.15
2023-01-27T12:46:33.756Z,0.19
2023-01-27T12:49:40.555Z,0.14
2023-01-27T12:52:53.083Z,0.23
2023-01-27T12:56:03.242Z,0.22
2023-01-27T12:59:16.730Z,0.18
2023-01-27T13:02:23.345Z,0.31
2023-01-27T13:05:26.758Z,0.33
2023-01-27T13:08:33.290Z,0.29
2023-01-27T13:11:40.552Z,0.27
2023-01-27T13:14:44.329Z,0.46
2023-01-27T13:17:56.028Z,0.38
2023-01-27T13:21:14.540Z,0.30
2023-01-27T13:24:24.816Z,0.41
2023-01-27T13:27:39.971Z,0.35
2023-01-27T13:30:50.313Z,0.40
2023-01-27T13:34:03.912Z,0.45
2023-01-27T13:37:18.415Z,0.37
2023-01-27T13:40:44.892Z,0.42
2023-01-27T13:43:58.140Z,0.31
2023-01-27T13:47:06.515Z,0.28
2023-01-27T13:50:30.488Z,0.39
2023-01-27T13:53:34.524Z,0.37
2023-01-27T13:57:19.912Z,0.30
2023-01-27T14:00:49.060Z,0.36
2023-01-27T14:04:11.588Z,0.37
2023-01-27T14:07:48.848Z,0.42
2023-01-27T14:11:03.435Z,0.45
2023-01-27T14:14:17.194Z,0.46
2023-01-27T14:17:29.839Z,0.43
2023-01-27T14:21:15.684Z,0.40
2023-01-27T14:24:39.626Z,0.39
2023-01-27T14:27:46.534Z,0.41
2023-01-27T14:31:01.261Z,0.52
2023-01-27T14:34:22.319Z,0.61
2023-01-27T14:37:46.472Z,0.65
2023-01-27T14:41:44.215Z,0.66
2023-01-27T14:45:17.662Z,0.72
2023-01-27T14:48:35.494Z,0.60
2023-01-27T14:51:51.474Z,0.67
2023-01-27T14:55:13.408Z,0.60
2023-01-27T14:58:41.823Z,0.51
2023-01-27T15:02:31.765Z,0.52
2023-01-27T15:06:22.719Z,0.47
2023-01-27T15:09:45.279Z,0.40
2023-01-27T15:13:10.040Z,0.37
2023-01-27T15:16:25.988Z,0.35
2023-01-27T15:19:44.399Z,0.32
2023-01-27T15:23:00.151Z,0.27
2023-01-27T15:26:07.606Z,0.21
2023-01-27T15:29:14.872Z,0.20
2023-01-27T15:32:26.267Z,0.18
2023-01-27T15:35:36.890Z,0.18
2023-01-27T15:38:40.363Z,0.18
2023-01-27T15:42:01.744Z,0.15
2023-01-27T15:45:06.187Z,0.16
2023-01-27T15:48:18.211Z,0.17
2023-01-27T15:51:21.998Z,0.16
2023-01-27T15:54:29.358Z,0.16
2023-01-27T15:57:39.269Z,0.18
2023-01-27T16:00:51.442Z,0.14
2023-01-27T16:04:27.004Z,0.16
2023-01-27T16:07:34.363Z,0.18
2023-01-27T16:10:38.747Z,0.03
2023-01-27T16:13:42.018Z,0.15
2023-01-27T16:17:03.977Z,0.18
2023-01-27T16:20:30.881Z,0.15
2023-01-27T16:23:56.602Z,0.18
2023-01-27T16:27:17.819Z,0.20
2023-01-27T16:30:25.464Z,0.21
2023-01-27T16:33:34.533Z,0.22
2023-01-27T16:36:39.862Z,0.18
2023-01-27T16:40:01.096Z,0.24
2023-01-27T16:43:14.622Z,0.24
2023-01-27T16:46:38.476Z,0.25
2023-01-27T16:49:43.878Z,0.24
2023-01-27T16:52:47.237Z,0.27
2023-01-27T16:56:32.998Z,0.28
2023-01-27T16:59:38.916Z,0.26
2023-01-27T17:02:42.746Z,0.28
2023-01-27T17:05:52.966Z,0.29
2023-01-27T17:08:56.948Z,0.28
2023-01-27T17:12:00.416Z,0.31
2023-01-27T17:15:35.076Z,0.30
2023-01-27T17:18:51.860Z,0.35
2023-01-27T17:22:02.548Z,0.37
2023-01-27T17:25:15.957Z,0.38
2023-01-27T17:28:27.976Z,0.33
2023-01-27T17:31:36.665Z,0.30
2023-01-27T17:34:41.709Z,0.33
2023-01-27T17:37:44.909Z,0.25
2023-01-27T17:40:51.870Z,0.36
2023-01-27T17:44:01.479Z,0.33
2023-01-27T17:47:07.172Z,0.34
2023-01-27T17:50:21.209Z,0.29
2023-01-27T17:53:29.818Z,0.37
2023-01-27T17:56:35.744Z,0.34
2023-01-27T17:59:44.086Z,0.34
2023-01-27T18:03:07.483Z,0.36
2023-01-27T18:06:15.192Z,0.27
2023-01-27T18:09:24.704Z,0.32
2023-01-27T18:12:34.385Z,0.36
2023-01-27T18:15:43.068Z,0.36
2023-01-27T18:18:55.993Z,0.37
2023-01-27T18:22:16.829Z,0.36
2023-01-27T18:25:21.969Z,0.35
2023-01-27T18:28:27.683Z,0.40
2023-01-27T18:31:35.910Z,0.38
2023-01-27T18:34:54.838Z,0.41
2023-01-27T18:38:04.767Z,0.43
2023-01-27T18:41:10.991Z,0.43
2023-01-27T18:44:19.235Z,0.35
2023-01-27T18:47:33.542Z,0.36
2023-01-27T18:50:45.970Z,0.45
2023-01-27T18:53:50.624Z,0.42
2023-01-27T18:56:56.122Z,0.42
2023-01-27T19:00:01.614Z,0.31
2023-01-27T19:03:15.882Z,0.31
2023-01-27T19:06:20.307Z,0.49
2023-01-27T19:09:24.930Z,0.45
2023-01-27T19:12:29.169Z,0.53
2023-01-27T19:15:38.751Z,0.51
2023-01-27T19:18:44.929Z,0.60
2023-01-27T19:21:50.219Z,0.59
2023-01-27T19:24:54.398Z,0.55
2023-01-27T19:28:05.309Z,0.69
2023-01-27T19:31:10.415Z,0.70
2023-01-27T19:34:19.033Z,0.58
2023-01-27T19:37:23.165Z,0.68
2023-01-27T19:40:33.470Z,0.70
2023-01-27T19:43:38.250Z,0.70
2023-01-27T19:46:44.405Z,0.72
2023-01-27T19:49:49.578Z,0.73
2023-01-27T19:52:57.535Z,0.74
2023-01-27T19:56:02.050Z,0.62
2023-01-27T19:59:06.617Z,0.75
2023-01-27T20:02:14.347Z,0.72
2023-01-27T20:05:20.337Z,0.68
2023-01-27T20:08:26.026Z,0.72
2023-01-27T20:11:41.442Z,0.70
2023-01-27T20:14:48.041Z,0.77
2023-01-27T20:17:53.932Z,0.78
2023-01-27T20:20:59.292Z,0.78
2023-01-27T20:24:06.592Z,0.63
2023-01-27T20:27:12.278Z,0.81
2023-01-27T20:30:21.231Z,0.81
2023-01-27T20:33:29.113Z,0.76
2023-01-27T20:36:34.974Z,0.80
2023-01-27T20:39:40.341Z,0.79
2023-01-27T20:42:46.425Z,0.70
2023-01-27T20:45:52.653Z,0.83
2023-01-27T20:48:59.710Z,0.79
2023-01-27T20:52:04.093Z,0.69
2023-01-27T20:55:09.967Z,0.81
2023-01-27T20:58:14.162Z,0.68
2023-01-27T21:01:23.870Z,0.72
2023-01-27T21:04:27.979Z,0.80
2023-01-27T21:07:34.721Z,0.77
2023-01-27T21:10:38.813Z,0.76
2023-01-27T21:13:43.098Z,0.77
2023-01-27T21:16:47.148Z,0.77
2023-01-27T21:19:51.716Z,0.76
2023-01-27T21:22:56.010Z,0.72
2023-01-27T21:26:06.145Z,0.73
2023-01-27T21:29:12.193Z,0.69
2023-01-27T21:32:16.140Z,0.75
2023-01-27T21:35:19.920Z,0.73
2023-01-27T21:38:24.106Z,0.73
2023-01-27T21:41:46.836Z,0.77
2023-01-27T21:45:09.838Z,0.70
2023-01-27T21:48:13.625Z,0.67
2023-01-27T21:51:17.434Z,0.69
2023-01-27T21:54:22.433Z,0.65
2023-01-27T21:57:26.974Z,0.64
2023-01-27T22:00:30.503Z,0.60
2023-01-27T22:03:36.152Z,0.60
2023-01-27T22:06:40.327Z,0.61
2023-01-27T22:09:44.081Z,0.64
2023-01-27T22:12:49.992Z,0.60
2023-01-27T22:15:53.659Z,0.74
2023-01-27T22:18:56.936Z,0.76
2023-01-27T22:22:00.455Z,0.77
2023-01-27T22:25:03.835Z,0.74
2023-01-27T22:28:10.105Z,0.72
2023-01-27T22:31:13.347Z,0.67
2023-01-27T22:34:17.623Z,0.65
2023-01-27T22:37:20.783Z,0.60
2023-01-27T22:40:24.413Z,0.63
2023-01-27T22:43:28.063Z,0.65
2023-01-27T22:46:31.627Z,0.66
2023-01-27T22:49:34.970Z,0.61
2023-01-27T22:52:39.448Z,0.57
2023-01-27T22:55:42.695Z,0.57
2023-01-27T22:58:46.852Z,0.58
2023-01-27T23:01:51.164Z,0.57
2023-01-27T23:04:56.352Z,0.56
2023-01-27T23:07:59.469Z,0.56
2023-01-27T23:11:05.810Z,0.67
2023-01-27T23:14:09.212Z,0.68
2023-01-27T23:17:12.669Z,0.62
2023-01-27T23:20:17.085Z,0.55
2023-01-27T23:23:22.855Z,0.53
2023-01-27T23:26:26.173Z,0.53
2023-01-27T23:29:29.815Z,0.58
2023-01-27T23:32:32.999Z,0.62
2023-01-27T23:35:36.653Z,0.61
2023-01-27T23:38:39.938Z,0.52
2023-01-27T23:41:43.539Z,0.53
2023-01-27T23:44:47.598Z,0.50
2023-01-27T23:47:51.178Z,0.49
2023-01-27T23:50:55.325Z,0.50
2023-01-27T23:53:58.744Z,0.57
2023-01-27T23:57:02.287Z,0.59
